createdAt,value
2018-07-19T17:46:52.630Z,2.60
2018-07-19T17:49:21.877Z,2.52
2018-07-19T17:51:51.353Z,2.55
2018-07-19T17:54:20.774Z,2.47
2018-07-19T17:56:50.209Z,2.20
2018-07-19T17:59:40.968Z,2.37
2018-07-19T18:02:10.351Z,2.20
2018-07-19T18:04:39.821Z,2.45
2018-07-19T18:07:09.242Z,2.90
2018-07-19T18:09:47.205Z,2.52
2018-07-19T18:12:16.621Z,2.50
2018-07-19T18:14:45.989Z,2.60
2018-07-19T18:17:15.490Z,2.27
2018-07-19T18:19:47.023Z,2.40
2018-07-19T18:22:16.489Z,2.50
2018-07-19T18:24:46.865Z,2.62
2018-07-19T18:27:16.226Z,2.58
2018-07-19T18:30:08.403Z,2.47
2018-07-19T18:32:37.957Z,2.20
2018-07-19T18:35:07.371Z,2.20
2018-07-19T18:37:36.754Z,2.40
2018-07-19T18:40:15.668Z,2.40
2018-07-19T18:42:45.318Z,2.12
2018-07-19T18:45:14.724Z,3.27
2018-07-19T18:47:44.230Z,2.47
2018-07-19T18:50:27.070Z,2.10
2018-07-19T18:52:56.549Z,2.70
2018-07-19T18:55:25.947Z,3.30
2018-07-19T18:57:55.518Z,2.50
2018-07-19T19:00:29.722Z,2.37
2018-07-19T19:02:59.237Z,2.55
2018-07-19T19:05:32.401Z,2.52
2018-07-19T19:08:01.855Z,2.77
2018-07-19T19:10:44.738Z,2.58
2018-07-19T19:13:14.167Z,3.17
2018-07-19T19:15:43.922Z,2.83
2018-07-19T19:18:13.383Z,2.50
2018-07-19T19:21:01.306Z,2.60
2018-07-19T19:23:30.717Z,3.63
2018-07-19T19:26:00.175Z,2.97
2018-07-19T19:28:29.544Z,2.87
2018-07-19T19:30:59.894Z,2.80
2018-07-19T19:33:29.258Z,3.30
2018-07-19T19:35:58.774Z,2.63
2018-07-19T19:38:27.865Z,3.40
2018-07-19T19:41:15.489Z,3.00
2018-07-19T19:43:44.602Z,3.10
2018-07-19T19:46:14.074Z,3.47
2018-07-19T19:48:43.529Z,3.10
2018-07-19T19:51:26.100Z,3.37
2018-07-19T19:53:55.609Z,3.63
2018-07-19T19:56:25.051Z,3.10
2018-07-19T19:58:54.521Z,3.03
2018-07-19T20:01:23.965Z,3.50
2018-07-19T20:03:53.554Z,4.30
2018-07-19T20:06:22.950Z,3.63
2018-07-19T20:08:52.359Z,3.90
2018-07-19T20:11:21.705Z,3.73
2018-07-19T20:13:51.033Z,4.00
2018-07-19T20:16:20.503Z,4.60
2018-07-19T20:18:49.927Z,3.80
2018-07-19T20:21:24.133Z,3.77
2018-07-19T20:23:53.542Z,4.33
2018-07-19T20:26:22.903Z,3.80
2018-07-19T20:28:52.037Z,4.60
2018-07-19T20:31:21.465Z,5.03
2018-07-19T20:33:50.841Z,5.60
2018-07-19T20:36:20.175Z,4.47
2018-07-19T20:38:49.589Z,4.50
2018-07-19T20:41:42.661Z,4.23
2018-07-19T20:44:12.031Z,4.33
2018-07-19T20:46:41.441Z,4.23
2018-07-19T20:49:16.862Z,4.23
2018-07-19T20:51:46.246Z,4.50
2018-07-19T20:54:15.646Z,4.30
2018-07-19T20:56:44.999Z,5.13
2018-07-19T20:59:57.857Z,4.50
2018-07-19T21:02:27.216Z,4.57
2018-07-19T21:05:01.100Z,4.30
2018-07-19T21:07:30.492Z,4.73
2018-07-19T21:10:31.290Z,4.57
2018-07-19T21:13:08.238Z,4.97
2018-07-19T21:15:37.698Z,4.70
2018-07-19T21:18:07.281Z,4.90
2018-07-19T21:20:48.516Z,4.50
2018-07-19T21:23:17.902Z,4.97
2018-07-19T21:25:47.321Z,4.40
2018-07-19T21:28:16.801Z,3.77
2018-07-19T21:30:48.235Z,4.60
2018-07-19T21:33:17.665Z,4.37
2018-07-19T21:35:47.093Z,4.40
2018-07-19T21:38:16.554Z,4.57
2018-07-19T21:40:56.084Z,5.00
2018-07-19T21:43:25.527Z,4.87
2018-07-19T21:45:54.876Z,4.97
2018-07-19T21:48:24.317Z,4.37
2018-07-19T21:50:53.774Z,5.07
2018-07-19T21:53:23.218Z,4.20
2018-07-19T21:55:52.681Z,4.30
2018-07-19T21:58:22.081Z,4.60
2018-07-19T22:00:58.805Z,4.70
2018-07-19T22:03:28.376Z,4.40
2018-07-19T22:05:57.848Z,4.03
2018-07-19T22:08:27.262Z,4.43
2018-07-19T22:11:25.183Z,4.23
2018-07-19T22:13:54.610Z,4.03
2018-07-19T22:16:24.127Z,5.20
2018-07-19T22:18:53.569Z,4.20
2018-07-19T22:21:23.041Z,4.23
2018-07-19T22:23:52.448Z,4.37
2018-07-19T22:26:21.997Z,4.40
2018-07-19T22:28:51.319Z,3.97
2018-07-19T22:31:20.958Z,4.03
2018-07-19T22:33:50.910Z,4.40
2018-07-19T22:36:20.669Z,4.17
2018-07-19T22:38:50.069Z,4.03
2018-07-19T22:41:28.901Z,4.00
2018-07-19T22:43:58.298Z,4.53
2018-07-19T22:46:27.674Z,3.97
2018-07-19T22:48:57.085Z,4.30
2018-07-19T22:51:26.239Z,4.27
2018-07-19T22:53:55.645Z,4.60
2018-07-19T22:56:25.053Z,4.30
2018-07-19T22:58:54.379Z,4.20
2018-07-19T23:01:23.742Z,4.57
2018-07-19T23:03:53.154Z,4.00
2018-07-19T23:06:22.593Z,5.10
2018-07-19T23:08:52.026Z,4.50
2018-07-19T23:11:21.428Z,4.53
2018-07-19T23:13:50.841Z,3.77
2018-07-19T23:16:20.266Z,4.87
2018-07-19T23:18:49.635Z,4.93
2018-07-19T23:21:20.109Z,4.47
2018-07-19T23:23:49.477Z,4.50
2018-07-19T23:26:18.958Z,4.43
2018-07-19T23:28:48.467Z,4.53
2018-07-19T23:31:17.958Z,4.43
2018-07-19T23:33:47.379Z,4.93
2018-07-19T23:36:34.987Z,4.33
2018-07-19T23:39:09.678Z,4.63
2018-07-19T23:41:47.014Z,4.50
2018-07-19T23:44:20.734Z,4.80
2018-07-19T23:46:53.721Z,4.53
2018-07-19T23:49:46.885Z,5.30
2018-07-19T23:52:16.246Z,4.97
2018-07-19T23:54:45.606Z,4.80
2018-07-19T23:57:14.964Z,4.73
2018-07-19T23:59:59.702Z,4.83
